createdAt,value
2022-09-24T00:00:32.755Z,99863.22
2022-09-24T00:02:34.942Z,99874.09
2022-09-24T00:04:37.278Z,99873.22
2022-09-24T00:06:43.213Z,99862.63
2022-09-24T00:08:49.610Z,99870.72
2022-09-24T00:10:51.934Z,99865.41
2022-09-24T00:12:54.032Z,99861.09
2022-09-24T00:14:56.075Z,99870.03
2022-09-24T00:16:59.328Z,99863.97
2022-09-24T00:19:03.031Z,99864.28
2022-09-24T00:21:14.828Z,99857.53
2022-09-24T00:23:17.045Z,99852.63
2022-09-24T00:25:37.747Z,99855.50
2022-09-24T00:27:39.780Z,99856.28
2022-09-24T00:29:42.315Z,99856.78
2022-09-24T00:31:44.554Z,99856.22
2022-09-24T00:33:46.711Z,99848.97
2022-09-24T00:35:48.793Z,99857.78
2022-09-24T00:38:02.329Z,99854.28
2022-09-24T00:40:06.272Z,99853.25
2022-09-24T00:42:10.389Z,99848.88
2022-09-24T00:44:41.139Z,99851.75
2022-09-24T00:47:02.240Z,99855.53
2022-09-24T00:49:17.112Z,99851.97
2022-09-24T00:51:25.659Z,99850.16
2022-09-24T00:53:33.289Z,99853.06
2022-09-24T00:55:37.160Z,99851.19
2022-09-24T00:57:40.555Z,99854.03
2022-09-24T00:59:44.156Z,99851.28
2022-09-24T01:01:47.575Z,99850.59
2022-09-24T01:03:51.692Z,99854.16
2022-09-24T01:05:55.546Z,99849.75
2022-09-24T01:07:58.385Z,99851.50
2022-09-24T01:10:01.831Z,99849.94
2022-09-24T01:12:48.683Z,99856.69
2022-09-24T01:15:24.814Z,99855.06
2022-09-24T01:17:48.585Z,99860.31
2022-09-24T01:19:59.775Z,99860.44
2022-09-24T01:22:08.343Z,99854.94
2022-09-24T01:24:36.157Z,99848.56
2022-09-24T01:27:06.084Z,99853.06
2022-09-24T01:29:26.991Z,99848.69
2022-09-24T01:31:42.010Z,99847.69
2022-09-24T01:33:49.110Z,99834.91
2022-09-24T01:35:55.552Z,99842.22
2022-09-24T01:38:05.016Z,99835.13
2022-09-24T01:40:10.944Z,99830.56
2022-09-24T01:42:14.691Z,99849.72
2022-09-24T01:44:18.614Z,99852.41
2022-09-24T01:46:22.961Z,99853.66
2022-09-24T01:48:30.603Z,99853.03
2022-09-24T01:50:47.332Z,99848.63
2022-09-24T01:52:56.181Z,99857.34
2022-09-24T01:55:03.957Z,99851.91
2022-09-24T01:57:13.655Z,99848.47
2022-09-24T01:59:42.917Z,99850.28
2022-09-24T02:02:16.405Z,99847.81
2022-09-24T02:04:21.682Z,99852.38
2022-09-24T02:06:31.827Z,99844.38
2022-09-24T02:08:42.663Z,99848.03
2022-09-24T02:10:55.827Z,99851.78
2022-09-24T02:13:04.162Z,99853.88
2022-09-24T02:15:13.340Z,99846.84
2022-09-24T02:17:16.859Z,99858.22
2022-09-24T02:19:24.387Z,99854.84
2022-09-24T02:21:27.774Z,99850.28
2022-09-24T02:23:32.545Z,99849.53
2022-09-24T02:26:03.563Z,99850.38
2022-09-24T02:28:05.584Z,99851.06
2022-09-24T02:30:11.106Z,99850.09
2022-09-24T02:32:18.376Z,99847.78
2022-09-24T02:34:42.575Z,99849.72
2022-09-24T02:36:44.860Z,99852.25
2022-09-24T02:38:47.013Z,99852.16
2022-09-24T02:40:49.987Z,99856.75
2022-09-24T02:42:52.429Z,99848.75
2022-09-24T02:44:57.575Z,99854.66
2022-09-24T02:47:00.064Z,99845.88
2022-09-24T02:49:02.551Z,99851.66
2022-09-24T02:51:05.861Z,99854.28
2022-09-24T02:53:08.105Z,99848.69
2022-09-24T02:55:10.284Z,99856.78
2022-09-24T02:57:12.695Z,99854.72
2022-09-24T02:59:14.937Z,99853.69
2022-09-24T03:01:17.060Z,99849.28
2022-09-24T03:03:19.419Z,99857.47
2022-09-24T03:05:22.304Z,99848.69
2022-09-24T03:07:24.245Z,99849.56
2022-09-24T03:09:26.289Z,99843.75
2022-09-24T03:11:29.302Z,99853.84
2022-09-24T03:13:31.671Z,99841.22
2022-09-24T03:15:33.955Z,99834.97
2022-09-24T03:17:36.410Z,99830.31
2022-09-24T03:19:42.260Z,99838.38
2022-09-24T03:21:49.329Z,99842.06
2022-09-24T03:23:51.805Z,99845.84
2022-09-24T03:25:58.836Z,99847.22
2022-09-24T03:28:01.141Z,99843.63
2022-09-24T03:30:22.613Z,99850.53
2022-09-24T03:32:24.708Z,99840.88
2022-09-24T03:34:26.858Z,99838.09
2022-09-24T03:36:28.969Z,99842.72
2022-09-24T03:38:31.116Z,99843.56
2022-09-24T03:40:33.397Z,99846.13
2022-09-24T03:42:35.776Z,99842.75
2022-09-24T03:44:37.774Z,99843.91
2022-09-24T03:46:39.878Z,99852.75
2022-09-24T03:48:42.028Z,99846.66
2022-09-24T03:50:44.444Z,99844.13
2022-09-24T03:52:46.488Z,99851.09
2022-09-24T03:54:48.881Z,99851.88
2022-09-24T03:56:50.901Z,99852.03
2022-09-24T03:58:53.561Z,99843.16
2022-09-24T04:00:59.522Z,99849.66
2022-09-24T04:03:01.481Z,99850.75
2022-09-24T04:05:03.942Z,99848.03
2022-09-24T04:07:06.199Z,99845.34
2022-09-24T04:09:08.248Z,99853.56
2022-09-24T04:11:10.256Z,99845.75
2022-09-24T04:13:13.029Z,99857.47
2022-09-24T04:15:18.420Z,99848.59
2022-09-24T04:17:20.321Z,99852.28
2022-09-24T04:19:22.655Z,99854.22
2022-09-24T04:21:24.733Z,99856.03
2022-09-24T04:23:29.424Z,99857.03
2022-09-24T04:25:32.700Z,99857.22
2022-09-24T04:27:36.802Z,99857.50
2022-09-24T04:29:38.848Z,99858.28
2022-09-24T04:31:41.103Z,99861.78
2022-09-24T04:33:43.698Z,99865.56
2022-09-24T04:35:46.017Z,99859.22
2022-09-24T04:37:48.377Z,99862.97
2022-09-24T04:39:50.423Z,99858.47
2022-09-24T04:41:53.319Z,99862.63
2022-09-24T04:43:57.656Z,99865.31
2022-09-24T04:46:00.530Z,99855.34
2022-09-24T04:48:02.995Z,99857.25
2022-09-24T04:50:05.919Z,99852.75
2022-09-24T04:52:09.020Z,99847.53
2022-09-24T04:54:11.424Z,99850.78
2022-09-24T04:56:14.618Z,99853.59
2022-09-24T04:58:17.148Z,99855.81
2022-09-24T05:00:21.488Z,99851.28
2022-09-24T05:02:24.477Z,99855.50
2022-09-24T05:04:26.693Z,99850.19
2022-09-24T05:06:29.008Z,99849.16
2022-09-24T05:08:31.189Z,99843.78
2022-09-24T05:10:33.628Z,99846.31
2022-09-24T05:12:37.949Z,99850.72
2022-09-24T05:14:40.193Z,99842.13
2022-09-24T05:16:42.428Z,99841.88
2022-09-24T05:18:47.444Z,99846.44
2022-09-24T05:20:49.839Z,99847.94
2022-09-24T05:22:52.050Z,99845.03
2022-09-24T05:24:54.587Z,99853.28
2022-09-24T05:27:11.653Z,99850.25
2022-09-24T05:29:14.291Z,99848.00
2022-09-24T05:31:17.570Z,99852.16
2022-09-24T05:33:19.531Z,99848.31
2022-09-24T05:35:23.718Z,99844.34
2022-09-24T05:37:25.813Z,99854.16
2022-09-24T05:39:33.468Z,99852.53
2022-09-24T05:41:36.050Z,99858.38
2022-09-24T05:43:38.842Z,99857.38
2022-09-24T05:45:43.771Z,99865.72
2022-09-24T05:47:46.669Z,99869.16
2022-09-24T05:49:49.341Z,99864.72
2022-09-24T05:51:51.879Z,99859.59
2022-09-24T05:53:54.558Z,99859.16
2022-09-24T05:55:59.472Z,99859.84
2022-09-24T05:58:10.795Z,99864.19
2022-09-24T06:00:13.767Z,99857.47
2022-09-24T06:02:16.459Z,99859.72
2022-09-24T06:04:21.497Z,99864.78
2022-09-24T06:06:25.199Z,99863.31
2022-09-24T06:08:28.840Z,99877.25
2022-09-24T06:10:31.054Z,99882.00
2022-09-24T06:12:36.935Z,99869.84
2022-09-24T06:14:39.448Z,99876.09
2022-09-24T06:16:41.984Z,99887.94
2022-09-24T06:18:45.560Z,99885.41
2022-09-24T06:20:48.067Z,99885.25
2022-09-24T06:22:50.785Z,99880.56
2022-09-24T06:24:53.263Z,99881.72
2022-09-24T06:26:55.451Z,99883.41
2022-09-24T06:30:01.606Z,99876.66
2022-09-24T06:32:04.381Z,99869.25
2022-09-24T06:34:06.677Z,99860.00
2022-09-24T06:36:09.160Z,99859.34
2022-09-24T06:38:13.938Z,99868.78
2022-09-24T06:40:16.839Z,99869.38
2022-09-24T06:42:20.550Z,99871.03
2022-09-24T06:44:23.002Z,99865.69
2022-09-24T06:46:29.338Z,99861.41
2022-09-24T06:48:34.353Z,99867.00
2022-09-24T06:50:41.610Z,99869.00
2022-09-24T06:52:44.092Z,99868.56
2022-09-24T06:54:47.708Z,99871.91
2022-09-24T06:56:51.578Z,99876.59
2022-09-24T06:58:54.471Z,99874.34
2022-09-24T07:00:59.442Z,99873.72
2022-09-24T07:03:04.578Z,99874.06
2022-09-24T07:05:09.987Z,99878.50
2022-09-24T07:07:30.385Z,99880.00
2022-09-24T07:09:33.050Z,99877.78
2022-09-24T07:11:36.800Z,99877.84
2022-09-24T07:13:38.832Z,99876.25
2022-09-24T07:15:42.306Z,99874.72
2022-09-24T07:17:45.035Z,99877.56
2022-09-24T07:19:47.362Z,99879.22
2022-09-24T07:21:49.480Z,99874.06
2022-09-24T07:23:56.379Z,99878.28
2022-09-24T07:26:03.118Z,99868.59
2022-09-24T07:28:11.058Z,99876.53
2022-09-24T07:30:16.113Z,99883.31
2022-09-24T07:32:18.506Z,99871.31
2022-09-24T07:34:20.986Z,99864.56
2022-09-24T07:36:25.299Z,99876.22
2022-09-24T07:38:27.618Z,99873.13
2022-09-24T07:40:31.398Z,99874.47
2022-09-24T07:42:33.835Z,99881.75
2022-09-24T07:44:36.720Z,99880.72
2022-09-24T07:46:39.101Z,99880.19
2022-09-24T07:48:41.408Z,99890.50
2022-09-24T07:50:43.627Z,99891.00
2022-09-24T07:52:50.788Z,99890.44
2022-09-24T07:54:54.614Z,99885.44
2022-09-24T07:56:57.288Z,99884.47
2022-09-24T07:58:59.559Z,99895.66
2022-09-24T08:01:02.280Z,99890.69
2022-09-24T08:03:05.828Z,99886.75
2022-09-24T08:05:08.495Z,99890.06
2022-09-24T08:07:12.023Z,99887.03
2022-09-24T08:09:17.179Z,99884.75
2022-09-24T08:11:20.140Z,99884.16
2022-09-24T08:13:26.838Z,99884.38
2022-09-24T08:15:33.429Z,99885.91
2022-09-24T08:17:35.987Z,99888.25
2022-09-24T08:19:40.102Z,99880.38
2022-09-24T08:21:42.397Z,99882.72
2022-09-24T08:23:45.123Z,99886.22
2022-09-24T08:25:48.147Z,99882.78
2022-09-24T08:27:50.380Z,99891.66
2022-09-24T08:29:52.975Z,99892.41
2022-09-24T08:31:55.800Z,99886.97
2022-09-24T08:33:58.109Z,99890.75
2022-09-24T08:36:01.745Z,99892.81
2022-09-24T08:38:04.269Z,99888.34
2022-09-24T08:40:07.329Z,99887.28
2022-09-24T08:42:34.274Z,99879.88
2022-09-24T08:45:04.178Z,99890.03
2022-09-24T08:47:25.448Z,99893.91
2022-09-24T08:49:46.541Z,99895.38
2022-09-24T08:52:29.857Z,99883.03
2022-09-24T08:54:35.788Z,99888.75
2022-09-24T08:56:44.080Z,99875.72
2022-09-24T08:59:21.618Z,99880.00
2022-09-24T09:01:23.750Z,99884.34
2022-09-24T09:03:40.986Z,99895.91
2022-09-24T09:06:19.770Z,99892.13
2022-09-24T09:09:06.442Z,99889.91
2022-09-24T09:11:13.818Z,99891.28
2022-09-24T09:13:25.721Z,99901.09
2022-09-24T09:15:32.618Z,99890.84
2022-09-24T09:17:55.325Z,99900.00
2022-09-24T09:20:01.953Z,99896.00
2022-09-24T09:22:15.280Z,99894.13
2022-09-24T09:24:26.745Z,99888.59
2022-09-24T09:26:32.022Z,99895.59
2022-09-24T09:28:34.393Z,99891.59
2022-09-24T09:30:49.054Z,99889.63
2022-09-24T09:33:20.306Z,99890.59
2022-09-24T09:36:03.869Z,99891.59
2022-09-24T09:38:43.204Z,99886.69
2022-09-24T09:40:59.428Z,99888.13
2022-09-24T09:43:09.598Z,99884.88
2022-09-24T09:45:27.968Z,99889.91
2022-09-24T09:47:54.238Z,99887.84
2022-09-24T09:50:04.243Z,99902.81
2022-09-24T09:52:15.869Z,99901.81
2022-09-24T09:54:17.888Z,99894.75
2022-09-24T09:56:25.411Z,99899.91
2022-09-24T09:58:31.307Z,99900.22
2022-09-24T10:00:36.010Z,99897.06
2022-09-24T10:02:43.816Z,99894.25
2022-09-24T10:04:46.760Z,99896.78
2022-09-24T10:06:48.962Z,99892.63
2022-09-24T10:08:51.482Z,99894.69
2022-09-24T10:11:01.361Z,99900.06
2022-09-24T10:13:09.339Z,99886.09
2022-09-24T10:15:24.517Z,99883.38
2022-09-24T10:17:38.659Z,99882.06
2022-09-24T10:20:15.928Z,99873.66
2022-09-24T10:22:26.210Z,99874.19
2022-09-24T10:24:30.088Z,99865.91
2022-09-24T10:26:43.864Z,99867.88
2022-09-24T10:29:08.808Z,99861.09
2022-09-24T10:31:21.606Z,99863.50
2022-09-24T10:33:36.054Z,99866.22
2022-09-24T10:35:38.853Z,99874.97
2022-09-24T10:38:00.278Z,99865.91
2022-09-24T10:40:12.904Z,99865.25
2022-09-24T10:42:26.212Z,99873.88
2022-09-24T10:44:37.113Z,99867.25
2022-09-24T10:46:48.445Z,99868.50
2022-09-24T10:48:55.197Z,99858.91
2022-09-24T10:51:17.718Z,99853.22
2022-09-24T10:53:47.415Z,99852.13
2022-09-24T10:55:55.799Z,99846.03
2022-09-24T10:58:14.318Z,99842.97
2022-09-24T11:00:30.155Z,99837.91
2022-09-24T11:03:00.111Z,99842.84
2022-09-24T11:05:12.329Z,99852.13
2022-09-24T11:07:36.364Z,99845.50
2022-09-24T11:10:13.334Z,99848.84
2022-09-24T11:12:52.935Z,99849.06
2022-09-24T11:15:22.237Z,99838.34
2022-09-24T11:17:33.806Z,99833.66
2022-09-24T11:20:00.615Z,99837.25
2022-09-24T11:22:15.974Z,99827.09
2022-09-24T11:24:46.065Z,99840.94
2022-09-24T11:27:10.959Z,99831.72
2022-09-24T11:29:37.035Z,99832.72
2022-09-24T11:31:42.817Z,99833.97
2022-09-24T11:34:22.033Z,99834.88
2022-09-24T11:36:43.031Z,99831.38
2022-09-24T11:39:12.871Z,99824.34
2022-09-24T11:41:33.589Z,99830.59
2022-09-24T11:43:35.864Z,99829.06
2022-09-24T11:45:49.207Z,99826.19
2022-09-24T11:48:00.116Z,99829.56
2022-09-24T11:50:24.428Z,99806.81
2022-09-24T11:52:48.212Z,99816.03
2022-09-24T11:54:58.685Z,99817.75
2022-09-24T11:57:13.353Z,99807.34
2022-09-24T11:59:35.259Z,99813.03
2022-09-24T12:01:41.238Z,99817.41
2022-09-24T12:03:57.363Z,99815.78
2022-09-24T12:06:09.765Z,99809.69
2022-09-24T12:08:38.445Z,99801.16
2022-09-24T12:10:48.942Z,99790.75
2022-09-24T12:12:57.600Z,99796.63
2022-09-24T12:15:08.744Z,99802.19
2022-09-24T12:17:18.884Z,99795.09
2022-09-24T12:19:23.571Z,99792.09
2022-09-24T12:21:35.202Z,99789.09
2022-09-24T12:23:45.160Z,99792.88
2022-09-24T12:25:53.516Z,99800.72
2022-09-24T12:27:56.841Z,99795.34
2022-09-24T12:30:32.220Z,99793.97
2022-09-24T12:32:56.378Z,99785.16
2022-09-24T12:35:07.761Z,99794.72
2022-09-24T12:37:14.465Z,99795.09
2022-09-24T12:39:19.222Z,99791.91
2022-09-24T12:41:27.511Z,99795.03
2022-09-24T12:43:38.202Z,99800.25
2022-09-24T12:45:40.555Z,99797.75
2022-09-24T12:48:01.604Z,99790.81
2022-09-24T12:50:06.718Z,99784.47
2022-09-24T12:52:25.378Z,99784.84
2022-09-24T12:54:35.379Z,99790.31
2022-09-24T12:56:37.700Z,99785.19
2022-09-24T12:58:42.057Z,99783.81
2022-09-24T13:00:47.284Z,99779.31
2022-09-24T13:02:49.721Z,99784.03
2022-09-24T13:05:28.228Z,99773.72
2022-09-24T13:07:39.854Z,99769.38
2022-09-24T13:09:42.898Z,99767.16
2022-09-24T13:11:45.584Z,99766.16
2022-09-24T13:13:59.756Z,99764.88
2022-09-24T13:16:08.020Z,99763.47
2022-09-24T13:18:10.345Z,99759.53
2022-09-24T13:20:28.881Z,99757.50
2022-09-24T13:22:37.424Z,99761.63
2022-09-24T13:24:50.952Z,99760.66
2022-09-24T13:26:53.216Z,99755.91
2022-09-24T13:29:04.227Z,99752.47
2022-09-24T13:31:21.374Z,99758.13
2022-09-24T13:33:45.448Z,99764.25
2022-09-24T13:36:11.014Z,99751.56
2022-09-24T13:38:27.478Z,99755.53
2022-09-24T13:40:35.023Z,99748.97
2022-09-24T13:43:00.849Z,99752.81
2022-09-24T13:45:09.636Z,99744.63
2022-09-24T13:47:37.637Z,99749.31
2022-09-24T13:49:47.687Z,99745.38
2022-09-24T13:52:31.128Z,99738.16
2022-09-24T13:54:39.896Z,99739.78
2022-09-24T13:56:44.099Z,99727.91
2022-09-24T13:58:51.997Z,99724.66
2022-09-24T14:00:55.224Z,99726.88
2022-09-24T14:03:03.278Z,99723.66
2022-09-24T14:05:17.611Z,99734.47
2022-09-24T14:07:21.686Z,99738.06
2022-09-24T14:09:23.637Z,99736.28
2022-09-24T14:11:26.423Z,99737.53
2022-09-24T14:13:28.479Z,99735.56
2022-09-24T14:15:30.553Z,99733.81
2022-09-24T14:17:32.752Z,99729.91
2022-09-24T14:19:36.228Z,99732.72
2022-09-24T14:21:58.832Z,99725.38
2022-09-24T14:24:09.903Z,99710.63
2022-09-24T14:26:36.647Z,99715.47
2022-09-24T14:28:39.193Z,99732.69
2022-09-24T14:31:00.231Z,99724.94
2022-09-24T14:33:12.150Z,99735.75
2022-09-24T14:35:29.858Z,99737.88
2022-09-24T14:37:36.467Z,99718.28
2022-09-24T14:39:43.677Z,99713.41
2022-09-24T14:41:45.760Z,99706.00
2022-09-24T14:43:53.662Z,99702.41
2022-09-24T14:46:07.064Z,99697.81
2022-09-24T14:48:30.409Z,99695.66
2022-09-24T14:50:41.022Z,99700.25
2022-09-24T14:52:56.818Z,99703.72
2022-09-24T14:55:20.703Z,99702.09
2022-09-24T14:57:26.027Z,99702.59
2022-09-24T14:59:30.840Z,99702.50
2022-09-24T15:01:33.978Z,99704.13
2022-09-24T15:03:53.604Z,99702.41
2022-09-24T15:06:12.643Z,99708.06
2022-09-24T15:08:24.055Z,99712.13
2022-09-24T15:10:26.093Z,99713.47
2022-09-24T15:12:36.863Z,99720.88
2022-09-24T15:14:39.208Z,99709.75
2022-09-24T15:16:42.236Z,99714.34
2022-09-24T15:18:44.606Z,99709.97
2022-09-24T15:20:46.654Z,99706.28
2022-09-24T15:22:49.097Z,99706.28
2022-09-24T15:24:54.363Z,99699.94
2022-09-24T15:27:01.077Z,99703.03
2022-09-24T15:29:04.207Z,99700.06
2022-09-24T15:31:06.361Z,99693.75
2022-09-24T15:33:14.686Z,99704.00
2022-09-24T15:35:17.255Z,99702.78
2022-09-24T15:37:21.900Z,99697.56
2022-09-24T15:39:25.950Z,99695.94
2022-09-24T15:41:28.363Z,99694.94
2022-09-24T15:43:30.356Z,99683.28
2022-09-24T15:45:32.460Z,99691.59
2022-09-24T15:47:34.520Z,99690.59
2022-09-24T15:49:36.554Z,99689.72
2022-09-24T15:51:40.364Z,99692.56
2022-09-24T15:53:42.547Z,99690.06
2022-09-24T15:55:48.662Z,99686.59
2022-09-24T15:57:50.800Z,99685.81
2022-09-24T15:59:53.694Z,99684.97
2022-09-24T16:02:00.156Z,99688.91
2022-09-24T16:04:02.545Z,99698.28
2022-09-24T16:06:04.731Z,99698.41
2022-09-24T16:08:06.797Z,99697.66
2022-09-24T16:10:10.648Z,99698.53
2022-09-24T16:12:16.479Z,99696.22
2022-09-24T16:14:19.042Z,99693.75
2022-09-24T16:16:22.775Z,99685.16
2022-09-24T16:18:26.220Z,99687.44
2022-09-24T16:20:30.903Z,99696.81
2022-09-24T16:22:33.083Z,99697.25
2022-09-24T16:24:35.366Z,99708.47
2022-09-24T16:26:38.769Z,99711.56
2022-09-24T16:28:40.731Z,99715.47
2022-09-24T16:30:43.265Z,99707.75
2022-09-24T16:32:48.111Z,99710.03
2022-09-24T16:34:50.232Z,99706.88
2022-09-24T16:36:55.501Z,99708.09
2022-09-24T16:38:58.641Z,99704.81
2022-09-24T16:41:01.052Z,99706.13
2022-09-24T16:43:04.030Z,99707.22
2022-09-24T16:45:07.190Z,99711.34
2022-09-24T16:47:09.639Z,99712.53
2022-09-24T16:49:12.684Z,99716.47
2022-09-24T16:51:14.952Z,99719.81
2022-09-24T16:53:17.150Z,99713.69
2022-09-24T16:55:19.402Z,99714.84
2022-09-24T16:57:21.470Z,99720.50
2022-09-24T16:59:23.509Z,99730.72
2022-09-24T17:01:25.815Z,99730.06
2022-09-24T17:03:28.026Z,99737.59
2022-09-24T17:05:30.120Z,99735.16
2022-09-24T17:07:32.799Z,99743.53
2022-09-24T17:09:53.533Z,99746.78
2022-09-24T17:11:57.187Z,99731.63
2022-09-24T17:14:00.668Z,99740.09
2022-09-24T17:16:02.960Z,99740.44
2022-09-24T17:18:05.221Z,99733.44
2022-09-24T17:20:08.007Z,99745.47
2022-09-24T17:22:10.393Z,99742.97
2022-09-24T17:24:13.816Z,99739.59
2022-09-24T17:26:23.029Z,99731.72
2022-09-24T17:28:25.511Z,99737.38
2022-09-24T17:30:27.519Z,99737.75
2022-09-24T17:32:29.738Z,99747.97
2022-09-24T17:34:31.923Z,99751.84
2022-09-24T17:36:35.335Z,99753.81
2022-09-24T17:38:38.226Z,99749.53
2022-09-24T17:40:40.421Z,99754.38
2022-09-24T17:42:45.919Z,99757.28
2022-09-24T17:44:47.912Z,99758.38
2022-09-24T17:46:50.197Z,99760.38
2022-09-24T17:48:55.155Z,99763.31
2022-09-24T17:50:59.507Z,99754.28
2022-09-24T17:53:04.023Z,99759.13
2022-09-24T17:55:08.554Z,99764.78
2022-09-24T17:57:10.709Z,99757.69
2022-09-24T17:59:16.952Z,99757.91
2022-09-24T18:01:22.223Z,99749.91
2022-09-24T18:03:24.631Z,99748.47
2022-09-24T18:05:26.835Z,99747.81
2022-09-24T18:07:30.032Z,99756.16
2022-09-24T18:09:32.146Z,99766.31
2022-09-24T18:11:40.077Z,99762.06
2022-09-24T18:13:42.330Z,99763.78
2022-09-24T18:15:44.355Z,99764.84
2022-09-24T18:17:46.318Z,99768.56
2022-09-24T18:19:48.339Z,99765.91
2022-09-24T18:21:50.487Z,99758.75
2022-09-24T18:23:56.724Z,99765.41
2022-09-24T18:26:19.711Z,99768.53
2022-09-24T18:28:22.788Z,99764.66
2022-09-24T18:30:25.031Z,99771.25
2022-09-24T18:32:33.198Z,99766.94
2022-09-24T18:34:35.555Z,99769.66
2022-09-24T18:36:39.802Z,99772.56
2022-09-24T18:38:44.415Z,99775.28
2022-09-24T18:40:47.553Z,99777.31
2022-09-24T18:42:50.562Z,99774.09
2022-09-24T18:44:55.722Z,99763.56
2022-09-24T18:46:57.840Z,99768.19
2022-09-24T18:49:01.124Z,99768.72
2022-09-24T18:51:05.317Z,99766.13
2022-09-24T18:53:07.320Z,99768.22
2022-09-24T18:55:09.993Z,99772.06
2022-09-24T18:57:14.231Z,99773.78
2022-09-24T18:59:19.643Z,99766.63
2022-09-24T19:01:21.974Z,99770.13
2022-09-24T19:03:28.230Z,99770.22
2022-09-24T19:05:30.366Z,99772.13
2022-09-24T19:07:32.778Z,99773.31
2022-09-24T19:09:37.644Z,99779.59
2022-09-24T19:11:42.125Z,99777.94
2022-09-24T19:13:49.121Z,99773.50
2022-09-24T19:15:51.507Z,99767.09
2022-09-24T19:17:54.212Z,99771.13
2022-09-24T19:19:56.664Z,99762.13
2022-09-24T19:21:59.748Z,99762.13
2022-09-24T19:24:01.932Z,99762.31
2022-09-24T19:26:05.079Z,99765.97
2022-09-24T19:28:10.635Z,99760.66
2022-09-24T19:30:12.816Z,99761.78
2022-09-24T19:32:15.163Z,99761.78
2022-09-24T19:34:17.356Z,99752.97
2022-09-24T19:36:20.159Z,99759.44
2022-09-24T19:38:24.085Z,99765.75
2022-09-24T19:40:26.126Z,99760.69
2022-09-24T19:42:28.058Z,99756.03
2022-09-24T19:44:30.907Z,99759.78
2022-09-24T19:46:33.560Z,99768.28
2022-09-24T19:48:38.670Z,99768.53
2022-09-24T19:50:40.859Z,99765.16
2022-09-24T19:52:44.254Z,99759.03
2022-09-24T19:54:46.482Z,99754.03
2022-09-24T19:56:51.588Z,99757.91
2022-09-24T19:58:56.024Z,99746.34
2022-09-24T20:01:02.811Z,99747.16
2022-09-24T20:03:05.408Z,99743.31
2022-09-24T20:05:08.067Z,99747.81
2022-09-24T20:07:10.614Z,99746.03
2022-09-24T20:09:13.163Z,99739.81
2022-09-24T20:11:19.484Z,99741.03
2022-09-24T20:13:22.570Z,99740.25
2022-09-24T20:15:24.600Z,99741.38
2022-09-24T20:17:26.670Z,99746.59
2022-09-24T20:19:31.728Z,99748.97
2022-09-24T20:21:35.248Z,99742.50
2022-09-24T20:23:37.613Z,99737.19
2022-09-24T20:25:58.105Z,99736.06
2022-09-24T20:28:00.664Z,99736.69
2022-09-24T20:30:02.868Z,99738.28
2022-09-24T20:32:05.276Z,99737.50
2022-09-24T20:34:07.229Z,99744.19
2022-09-24T20:36:17.974Z,99745.06
2022-09-24T20:38:22.215Z,99747.16
2022-09-24T20:40:24.023Z,99752.81
2022-09-24T20:42:25.804Z,99749.50
2022-09-24T20:44:28.112Z,99745.63
2022-09-24T20:46:30.435Z,99746.06
2022-09-24T20:48:32.273Z,99749.22
2022-09-24T20:50:34.915Z,99747.09
2022-09-24T20:52:36.864Z,99740.81
2022-09-24T20:54:38.580Z,99742.88
2022-09-24T20:56:40.783Z,99747.09
2022-09-24T20:58:42.819Z,99744.28
2022-09-24T21:00:54.462Z,99749.16
2022-09-24T21:02:56.351Z,99749.41
2022-09-24T21:04:58.401Z,99747.41
2022-09-24T21:07:01.742Z,99748.53
2022-09-24T21:09:04.015Z,99746.78
2022-09-24T21:11:11.339Z,99748.63
2022-09-24T21:13:13.211Z,99745.91
2022-09-24T21:15:15.478Z,99743.94
2022-09-24T21:17:18.652Z,99748.63
2022-09-24T21:19:21.062Z,99743.03
2022-09-24T21:21:29.027Z,99742.97
2022-09-24T21:23:32.889Z,99752.19
2022-09-24T21:25:53.509Z,99746.78
2022-09-24T21:27:56.773Z,99738.66
2022-09-24T21:29:58.426Z,99732.13
2022-09-24T21:32:00.388Z,99736.69
2022-09-24T21:34:02.443Z,99738.59
2022-09-24T21:36:07.345Z,99739.56
2022-09-24T21:38:09.409Z,99739.56
2022-09-24T21:40:11.566Z,99735.72
2022-09-24T21:42:14.209Z,99734.50
2022-09-24T21:44:17.739Z,99733.38
2022-09-24T21:46:19.795Z,99736.44
2022-09-24T21:48:23.572Z,99721.94
2022-09-24T21:50:25.290Z,99725.97
2022-09-24T21:52:31.211Z,99723.00
2022-09-24T21:54:36.578Z,99717.44
2022-09-24T21:56:38.341Z,99726.44
2022-09-24T21:58:40.033Z,99707.56
2022-09-24T22:00:42.976Z,99713.84
2022-09-24T22:02:45.235Z,99717.28
2022-09-24T22:04:47.451Z,99719.00
2022-09-24T22:06:51.321Z,99721.91
2022-09-24T22:08:54.316Z,99721.03
2022-09-24T22:11:05.328Z,99720.13
2022-09-24T22:13:08.683Z,99730.66
2022-09-24T22:15:11.093Z,99740.50
2022-09-24T22:17:13.951Z,99718.78
2022-09-24T22:19:15.807Z,99718.41
2022-09-24T22:21:17.600Z,99707.16
2022-09-24T22:23:20.963Z,99707.16
2022-09-24T22:25:22.943Z,99703.75
2022-09-24T22:27:24.618Z,99700.94
2022-09-24T22:29:26.339Z,99699.19
2022-09-24T22:31:28.170Z,99709.72
2022-09-24T22:33:49.640Z,99710.53
2022-09-24T22:35:55.735Z,99707.91
2022-09-24T22:37:57.537Z,99694.03
2022-09-24T22:39:59.396Z,99702.16
2022-09-24T22:42:01.684Z,99697.59
2022-09-24T22:44:03.610Z,99701.19
2022-09-24T22:46:11.692Z,99694.47
2022-09-24T22:48:13.611Z,99705.34
2022-09-24T22:50:15.416Z,99701.59
2022-09-24T22:52:17.167Z,99704.50
2022-09-24T22:54:18.923Z,99702.81
2022-09-24T22:56:30.392Z,99690.78
2022-09-24T22:58:33.841Z,99696.19
2022-09-24T23:00:36.398Z,99703.53
2022-09-24T23:02:38.135Z,99701.78
2022-09-24T23:04:40.658Z,99694.47
2022-09-24T23:06:43.746Z,99698.13
2022-09-24T23:08:45.578Z,99712.59
2022-09-24T23:10:47.514Z,99699.00
2022-09-24T23:12:49.438Z,99696.13
2022-09-24T23:14:52.614Z,99690.78
2022-09-24T23:16:58.783Z,99702.56
2022-09-24T23:19:03.620Z,99695.25
2022-09-24T23:21:07.490Z,99685.91
2022-09-24T23:23:09.297Z,99688.97
2022-09-24T23:25:11.001Z,99681.53
2022-09-24T23:27:16.933Z,99679.09
2022-09-24T23:29:18.770Z,99681.78
2022-09-24T23:31:25.353Z,99680.84
2022-09-24T23:33:30.013Z,99681.63
2022-09-24T23:35:32.343Z,99679.72
2022-09-24T23:37:34.216Z,99672.56
2022-09-24T23:39:35.976Z,99681.09
2022-09-24T23:41:37.820Z,99674.41
2022-09-24T23:43:39.758Z,99670.09
2022-09-24T23:45:42.024Z,99676.13
2022-09-24T23:47:43.806Z,99677.97
2022-09-24T23:49:45.541Z,99673.44
2022-09-24T23:51:47.247Z,99680.38
2022-09-24T23:53:49.050Z,99681.97
2022-09-24T23:55:52.162Z,99678.28
2022-09-24T23:57:53.977Z,99678.28
2022-09-24T23:59:55.875Z,99669.22
